Terminal Aerodrome Forecast
Issued by NWS

Home | Current Version | Previous Version | Text Only | Print | Product List | Glossary On
Versions: 1 2 3 4 5 6 7 8 9 10 11 12 13 14 15 16 17 18 19 20
000
FTUS43 KGRB 231900 AAA
TAFCWA
TAF AMD
KCWA 231952Z 2320/2418 18005KT 4SM -SHRA BR BKN004
     FM232100 20005KT P6SM BKN007
     FM240300 24003KT 3SM BR SCT003 BKN015
     FM240600 VRB03KT 1/2SM FG VV002
     FM241300 19003KT 1SM BR BKN003
     FM241500 20004KT 3SM BR SCT005 BKN012=

USA.gov is the U.S. government's official web portal to all federal, state and local government web resources and services.